sensor_id;sensor_type;location;lat;lon;timestamp;pressure;altitude;pressure_sealevel;temperature;humidity
36354;BME280;22383;51.114;13.666;2023-01-24T00:01:53;67104.13;;;-0.79;100.00
36354;BME280;22383;51.114;13.666;2023-01-24T00:04:20;67097.75;;;-0.87;100.00
36354;BME280;22383;51.114;13.666;2023-01-24T00:06:50;67093.25;;;-0.91;100.00
36354;BME280;22383;51.114;13.666;2023-01-24T00:09:20;67103.94;;;-0.82;100.00
36354;BME280;22383;51.114;13.666;2023-01-24T00:11:47;67098.88;;;-0.86;100.00
36354;BME280;22383;51.114;13.666;2023-01-24T00:14:14;67102.25;;;-0.83;100.00
36354;BME280;22383;51.114;13.666;2023-01-24T00:16:41;67096.84;;;-0.86;100.00
36354;BME280;22383;51.114;13.666;2023-01-24T00:19:08;67104.28;;;-0.84;100.00
36354;BME280;22383;51.114;13.666;2023-01-24T00:21:35;67107.88;;;-0.78;100.00
36354;BME280;22383;51.114;13.666;2023-01-24T00:24:02;67118.31;;;-0.71;100.00
36354;BME280;22383;51.114;13.666;2023-01-24T00:26:30;67103.59;;;-0.80;100.00
36354;BME280;22383;51.114;13.666;2023-01-24T00:28:57;67098.88;;;-0.86;100.00
36354;BME280;22383;51.114;13.666;2023-01-24T00:31:25;67094.38;;;-0.90;100.00
36354;BME280;22383;51.114;13.666;2023-01-24T00:33:54;67101.34;;;-0.82;100.00
36354;BME280;22383;51.114;13.666;2023-01-24T00:36:21;67099.44;;;-0.86;100.00
36354;BME280;22383;51.114;13.666;2023-01-24T00:38:56;67101.28;;;-0.89;100.00
36354;BME280;22383;51.114;13.666;2023-01-24T00:41:27;67110.34;;;-0.73;100.00
36354;BME280;22383;51.114;13.666;2023-01-24T00:43:57;67107.50;;;-0.76;100.00
36354;BME280;22383;51.114;13.666;2023-01-24T00:46:24;67103.59;;;-0.80;100.00
36354;BME280;22383;51.114;13.666;2023-01-24T00:48:52;67102.47;;;-0.81;100.00
36354;BME280;22383;51.114;13.666;2023-01-24T00:51:19;67111.03;;;-0.78;100.00
36354;BME280;22383;51.114;13.666;2023-01-24T00:53:46;67103.38;;;-0.82;100.00
36354;BME280;22383;51.114;13.666;2023-01-24T00:56:13;67095.53;;;-0.89;100.00
36354;BME280;22383;51.114;13.666;2023-01-24T00:58:40;67099.22;;;-0.88;100.00
36354;BME280;22383;51.114;13.666;2023-01-24T01:01:08;67098.88;;;-0.86;100.00
36354;BME280;22383;51.114;13.666;2023-01-24T01:03:36;67092.94;;;-0.89;100.00
36354;BME280;22383;51.114;13.666;2023-01-24T01:06:05;67084.50;;;-0.97;100.00
36354;BME280;22383;51.114;13.666;2023-01-24T01:08:36;67089.31;;;-0.95;100.00
36354;BME280;22383;51.114;13.666;2023-01-24T01:11:04;67102.25;;;-0.83;100.00
36354;BME280;22383;51.114;13.666;2023-01-24T01:13:31;67098.31;;;-0.87;100.00
36354;BME280;22383;51.114;13.666;2023-01-24T01:16:00;67093.06;;;-0.94;100.00
36354;BME280;22383;51.114;13.666;2023-01-24T01:18:27;67095.84;;;-0.91;100.00
36354;BME280;22383;51.114;13.666;2023-01-24T01:20:54;67084.28;;;-1.00;100.00
36354;BME280;22383;51.114;13.666;2023-01-24T01:23:21;67081.47;;;-1.02;100.00
36354;BME280;22383;51.114;13.666;2023-01-24T01:25:49;67078.88;;;-1.02;100.00
36354;BME280;22383;51.114;13.666;2023-01-24T01:28:16;67083.38;;;-0.98;100.00
36354;BME280;22383;51.114;13.666;2023-01-24T01:30:48;67083.50;;;-1.03;100.00
36354;BME280;22383;51.114;13.666;2023-01-24T01:33:16;67079.59;;;-1.06;100.00
36354;BME280;22383;51.114;13.666;2023-01-24T01:35:43;67083.16;;;-1.01;100.00
36354;BME280;22383;51.114;13.666;2023-01-24T01:38:10;67090.25;;;-0.97;100.00
36354;BME280;22383;51.114;13.666;2023-01-24T01:40:37;67091.25;;;-0.91;100.00
36354;BME280;22383;51.114;13.666;2023-01-24T01:43:12;67100.91;;;-0.87;100.00
36354;BME280;22383;51.114;13.666;2023-01-24T01:45:49;67093.25;;;-0.91;100.00
36354;BME280;22383;51.114;13.666;2023-01-24T01:48:25;67097.97;;;-0.85;100.00
36354;BME280;22383;51.114;13.666;2023-01-24T01:51:03;67097.41;;;-0.85;100.00
36354;BME280;22383;51.114;13.666;2023-01-24T01:53:37;67081.69;;;-1.00;100.00
36354;BME280;22383;51.114;13.666;2023-01-24T01:56:11;67094.38;;;-0.90;100.00
36354;BME280;22383;51.114;13.666;2023-01-24T01:58:40;67095.31;;;-0.92;100.00
36354;BME280;22383;51.114;13.666;2023-01-24T02:01:08;67096.63;;;-0.88;100.00
36354;BME280;22383;51.114;13.666;2023-01-24T02:03:41;67105.41;;;-0.83;100.00
36354;BME280;22383;51.114;13.666;2023-01-24T02:09:26;67097.75;;;-0.87;100.00
36354;BME280;22383;51.114;13.666;2023-01-24T02:11:59;67107.88;;;-0.78;100.00
36354;BME280;22383;51.114;13.666;2023-01-24T02:14:28;67106.72;;;-0.79;100.00
36354;BME280;22383;51.114;13.666;2023-01-24T02:17:17;67099.66;;;-0.83;100.00
36354;BME280;22383;51.114;13.666;2023-01-24T02:22:36;67102.25;;;-0.83;100.00
36354;BME280;22383;51.114;13.666;2023-01-24T02:25:18;67092.00;;;-0.88;100.00
36354;BME280;22383;51.114;13.666;2023-01-24T02:27:49;67091.72;;;-0.98;100.00
36354;BME280;22383;51.114;13.666;2023-01-24T02:30:16;67082.03;;;-1.02;100.00
36354;BME280;22383;51.114;13.666;2023-01-24T02:32:43;67082.03;;;-1.02;100.00
36354;BME280;22383;51.114;13.666;2023-01-24T02:35:26;67093.63;;;-0.93;100.00
36354;BME280;22383;51.114;13.666;2023-01-24T02:37:56;67106.19;;;-0.80;100.00
36354;BME280;22383;51.114;13.666;2023-01-24T02:40:27;67103.38;;;-0.82;100.00
36354;BME280;22383;51.114;13.666;2023-01-24T02:42:59;67109.34;;;-0.79;100.00
36354;BME280;22383;51.114;13.666;2023-01-24T02:45:30;67101.69;;;-0.84;100.00
36354;BME280;22383;51.114;13.666;2023-01-24T02:47:58;67102.47;;;-0.81;100.00
36354;BME280;22383;51.114;13.666;2023-01-24T02:50:28;67096.63;;;-0.88;100.00
36354;BME280;22383;51.114;13.666;2023-01-24T02:53:16;67099.44;;;-0.86;100.00
36354;BME280;22383;51.114;13.666;2023-01-24T02:56:01;67092.94;;;-0.89;100.00
36354;BME280;22383;51.114;13.666;2023-01-24T02:58:48;67094.94;;;-0.90;100.00
36354;BME280;22383;51.114;13.666;2023-01-24T03:01:16;67102.81;;;-0.83;100.00
36354;BME280;22383;51.114;13.666;2023-01-24T03:03:48;67099.44;;;-0.86;100.00
36354;BME280;22383;51.114;13.666;2023-01-24T03:06:16;67101.47;;;-0.86;100.00
36354;BME280;22383;51.114;13.666;2023-01-24T03:08:44;67102.47;;;-0.81;100.00
36354;BME280;22383;51.114;13.666;2023-01-24T03:11:33;67099.66;;;-0.83;100.00
36354;BME280;22383;51.114;13.666;2023-01-24T03:14:00;67100.56;;;-0.85;100.00
36354;BME280;22383;51.114;13.666;2023-01-24T03:16:46;67095.16;;;-0.87;100.00
36354;BME280;22383;51.114;13.666;2023-01-24T03:19:33;67094.38;;;-0.90;100.00
36354;BME280;22383;51.114;13.666;2023-01-24T03:22:19;67080.91;;;-1.03;100.00
36354;BME280;22383;51.114;13.666;2023-01-24T03:25:05;67098.13;;;-0.89;100.00
36354;BME280;22383;51.114;13.666;2023-01-24T03:27:51;67091.38;;;-0.96;100.00
36354;BME280;22383;51.114;13.666;2023-01-24T03:30:37;67088.22;;;-0.96;100.00
36354;BME280;22383;51.114;13.666;2023-01-24T03:33:23;67088.78;;;-0.96;100.00
36354;BME280;22383;51.114;13.666;2023-01-24T03:36:12;67099.22;;;-0.88;100.00
36354;BME280;22383;51.114;13.666;2023-01-24T03:38:49;67095.53;;;-0.89;100.00
36354;BME280;22383;51.114;13.666;2023-01-24T03:41:35;67092.34;;;-0.90;100.00
36354;BME280;22383;51.114;13.666;2023-01-24T03:44:03;67099.66;;;-0.83;100.00
36354;BME280;22383;51.114;13.666;2023-01-24T03:46:31;67098.88;;;-0.86;100.00
36354;BME280;22383;51.114;13.666;2023-01-24T03:49:01;67091.78;;;-0.90;100.00
36354;BME280;22383;51.114;13.666;2023-01-24T03:51:35;67093.47;;;-0.89;100.00
36354;BME280;22383;51.114;13.666;2023-01-24T03:54:21;67095.84;;;-0.91;100.00
36354;BME280;22383;51.114;13.666;2023-01-24T03:56:54;67088.56;;;-0.98;100.00
36354;BME280;22383;51.114;13.666;2023-01-24T03:59:23;67098.31;;;-0.87;100.00
36354;BME280;22383;51.114;13.666;2023-01-24T04:01:51;67092.16;;;-0.92;100.00
36354;BME280;22383;51.114;13.666;2023-01-24T04:04:27;67084.50;;;-0.97;100.00
36354;BME280;22383;51.114;13.666;2023-01-24T04:07:15;67093.63;;;-0.93;100.00
36354;BME280;22383;51.114;13.666;2023-01-24T04:09:54;67097.75;;;-0.87;100.00
36354;BME280;22383;51.114;13.666;2023-01-24T04:12:22;67094.88;;;-0.97;100.00
36354;BME280;22383;51.114;13.666;2023-01-24T04:14:51;67098.88;;;-0.86;100.00
36354;BME280;22383;51.114;13.666;2023-01-24T04:17:18;67100.44;;;-0.80;100.00
36354;BME280;22383;51.114;13.666;2023-01-24T04:19:50;67098.13;;;-0.89;100.00
36354;BME280;22383;51.114;13.666;2023-01-24T04:22:17;67098.13;;;-0.89;100.00
36354;BME280;22383;51.114;13.666;2023-01-24T04:24:45;67088.97;;;-0.93;100.00
36354;BME280;22383;51.114;13.666;2023-01-24T04:27:12;67096.97;;;-0.90;100.00
36354;BME280;22383;51.114;13.666;2023-01-24T04:29:57;67084.28;;;-1.00;100.00
36354;BME280;22383;51.114;13.666;2023-01-24T04:32:36;67090.25;;;-0.97;100.00
36354;BME280;22383;51.114;13.666;2023-01-24T04:35:17;67085.97;;;-0.98;100.00
36354;BME280;22383;51.114;13.666;2023-01-24T04:37:50;67091.56;;;-0.93;100.00
36354;BME280;22383;51.114;13.666;2023-01-24T04:40:31;67089.13;;;-0.98;100.00
36354;BME280;22383;51.114;13.666;2023-01-24T04:42:58;67087.50;;;-0.92;100.00
36354;BME280;22383;51.114;13.666;2023-01-24T04:45:25;67090.81;;;-0.96;100.00
36354;BME280;22383;51.114;13.666;2023-01-24T04:47:55;67089.91;;;-0.94;100.00
36354;BME280;22383;51.114;13.666;2023-01-24T04:50:23;67098.88;;;-0.86;100.00
36354;BME280;22383;51.114;13.666;2023-01-24T04:52:51;67092.94;;;-0.89;100.00
36354;BME280;22383;51.114;13.666;2023-01-24T04:55:20;67104.50;;;-0.81;100.00
36354;BME280;22383;51.114;13.666;2023-01-24T04:57:50;67102.59;;;-0.85;100.00
36354;BME280;22383;51.114;13.666;2023-01-24T05:00:17;67100.22;;;-0.83;100.00
36354;BME280;22383;51.114;13.666;2023-01-24T05:02:45;67100.22;;;-0.83;100.00
36354;BME280;22383;51.114;13.666;2023-01-24T05:05:13;67091.38;;;-0.96;100.00
36354;BME280;22383;51.114;13.666;2023-01-24T05:07:40;67090.66;;;-0.91;100.00
36354;BME280;22383;51.114;13.666;2023-01-24T05:10:13;67094.94;;;-0.90;100.00
36354;BME280;22383;51.114;13.666;2023-01-24T05:12:41;67094.75;;;-0.92;100.00
36354;BME280;22383;51.114;13.666;2023-01-24T05:15:17;67093.63;;;-0.93;100.00
36354;BME280;22383;51.114;13.666;2023-01-24T05:17:52;67093.06;;;-0.94;100.00
36354;BME280;22383;51.114;13.666;2023-01-24T05:20:22;67094.16;;;-0.93;100.00
36354;BME280;22383;51.114;13.666;2023-01-24T05:22:51;67089.91;;;-0.94;100.00
36354;BME280;22383;51.114;13.666;2023-01-24T05:25:18;67098.44;;;-0.91;100.00
36354;BME280;22383;51.114;13.666;2023-01-24T05:27:46;67087.31;;;-0.94;100.00
36354;BME280;22383;51.114;13.666;2023-01-24T05:30:20;67095.84;;;-0.91;100.00
36354;BME280;22383;51.114;13.666;2023-01-24T05:32:50;67088.41;;;-0.93;100.00
36354;BME280;22383;51.114;13.666;2023-01-24T05:35:17;67093.47;;;-0.89;100.00
36354;BME280;22383;51.114;13.666;2023-01-24T05:37:46;67098.31;;;-0.87;100.00
36354;BME280;22383;51.114;13.666;2023-01-24T05:40:17;67095.31;;;-0.92;100.00
36354;BME280;22383;51.114;13.666;2023-01-24T05:42:45;67091.78;;;-0.90;100.00
36354;BME280;22383;51.114;13.666;2023-01-24T05:45:13;67094.03;;;-0.88;100.00
36354;BME280;22383;51.114;13.666;2023-01-24T05:47:40;67097.53;;;-0.90;100.00
36354;BME280;22383;51.114;13.666;2023-01-24T05:50:11;67102.59;;;-0.85;100.00
36354;BME280;22383;51.114;13.666;2023-01-24T05:52:41;67097.75;;;-0.87;100.00
36354;BME280;22383;51.114;13.666;2023-01-24T05:55:12;67095.53;;;-0.89;100.00
36354;BME280;22383;51.114;13.666;2023-01-24T05:57:45;67100.91;;;-0.87;100.00
36354;BME280;22383;51.114;13.666;2023-01-24T06:00:12;67094.94;;;-0.90;100.00
36354;BME280;22383;51.114;13.666;2023-01-24T06:03:06;67089.31;;;-0.95;100.00
36354;BME280;22383;51.114;13.666;2023-01-24T06:05:34;67089.91;;;-0.94;100.00
36354;BME280;22383;51.114;13.666;2023-01-24T06:08:01;67089.69;;;-0.97;100.00
36354;BME280;22383;51.114;13.666;2023-01-24T06:10:28;67085.75;;;-1.01;100.00
36354;BME280;22383;51.114;13.666;2023-01-24T06:13:03;67083.94;;;-0.98;100.00
36354;BME280;22383;51.114;13.666;2023-01-24T06:15:30;67087.88;;;-0.94;100.00
36354;BME280;22383;51.114;13.666;2023-01-24T06:17:58;67098.88;;;-0.86;100.00
36354;BME280;22383;51.114;13.666;2023-01-24T06:20:27;67091.38;;;-0.96;100.00
36354;BME280;22383;51.114;13.666;2023-01-24T06:23:07;67090.25;;;-0.97;100.00
36354;BME280;22383;51.114;13.666;2023-01-24T06:25:42;67088.56;;;-0.98;100.00
36354;BME280;22383;51.114;13.666;2023-01-24T06:28:09;67091.38;;;-0.96;100.00
36354;BME280;22383;51.114;13.666;2023-01-24T06:30:39;67086.53;;;-0.98;100.00
36354;BME280;22383;51.114;13.666;2023-01-24T06:33:17;67083.16;;;-1.01;100.00
36354;BME280;22383;51.114;13.666;2023-01-24T06:38:31;67086.09;;;-1.03;100.00
36354;BME280;22383;51.114;13.666;2023-01-24T06:41:00;67091.00;;;-0.93;100.00
36354;BME280;22383;51.114;13.666;2023-01-24T06:43:28;67089.13;;;-0.98;100.00
36354;BME280;22383;51.114;13.666;2023-01-24T06:45:55;67096.56;;;-0.96;100.00
36354;BME280;22383;51.114;13.666;2023-01-24T06:48:23;67084.84;;;-0.99;100.00
36354;BME280;22383;51.114;13.666;2023-01-24T06:50:50;67093.06;;;-0.94;100.00
36354;BME280;22383;51.114;13.666;2023-01-24T06:53:17;67079.22;;;-1.04;100.00
36354;BME280;22383;51.114;13.666;2023-01-24T06:55:45;67091.94;;;-0.95;100.00
36354;BME280;22383;51.114;13.666;2023-01-24T06:58:12;67083.38;;;-0.98;100.00
36354;BME280;22383;51.114;13.666;2023-01-24T07:00:40;67082.81;;;-0.99;100.00
36354;BME280;22383;51.114;13.666;2023-01-24T07:03:07;67087.44;;;-0.99;100.00
36354;BME280;22383;51.114;13.666;2023-01-24T07:05:36;67098.69;;;-0.89;100.00
36354;BME280;22383;51.114;13.666;2023-01-24T07:08:05;67081.91;;;-0.97;100.00
36354;BME280;22383;51.114;13.666;2023-01-24T07:10:33;67086.38;;;-0.93;100.00
36354;BME280;22383;51.114;13.666;2023-01-24T07:13:00;67099.22;;;-0.88;100.00
36354;BME280;22383;51.114;13.666;2023-01-24T07:15:27;67092.34;;;-0.90;100.00
36354;BME280;22383;51.114;13.666;2023-01-24T07:17:55;67094.94;;;-0.90;100.00
36354;BME280;22383;51.114;13.666;2023-01-24T07:20:22;67086.88;;;-1.00;100.00
36354;BME280;22383;51.114;13.666;2023-01-24T07:22:49;67089.91;;;-0.94;100.00
36354;BME280;22383;51.114;13.666;2023-01-24T07:25:19;67088.22;;;-0.96;100.00
36354;BME280;22383;51.114;13.666;2023-01-24T07:27:47;67096.75;;;-0.93;100.00
36354;BME280;22383;51.114;13.666;2023-01-24T07:30:15;67083.38;;;-0.98;100.00
36354;BME280;22383;51.114;13.666;2023-01-24T07:32:42;67086.53;;;-0.98;100.00
36354;BME280;22383;51.114;13.666;2023-01-24T07:35:09;67088.22;;;-0.96;100.00
36354;BME280;22383;51.114;13.666;2023-01-24T07:37:37;67091.94;;;-0.95;100.00
36354;BME280;22383;51.114;13.666;2023-01-24T07:40:04;67097.75;;;-0.87;100.00
36354;BME280;22383;51.114;13.666;2023-01-24T07:42:33;67103.59;;;-0.80;100.00
36354;BME280;22383;51.114;13.666;2023-01-24T07:45:00;67100.38;;;-0.87;100.00
36354;BME280;22383;51.114;13.666;2023-01-24T07:47:27;67094.03;;;-0.88;100.00
36354;BME280;22383;51.114;13.666;2023-01-24T07:49:54;67095.53;;;-0.89;100.00
36354;BME280;22383;51.114;13.666;2023-01-24T07:52:21;67096.84;;;-0.86;100.00
36354;BME280;22383;51.114;13.666;2023-01-24T07:54:49;67097.75;;;-0.87;100.00
36354;BME280;22383;51.114;13.666;2023-01-24T07:57:16;67105.41;;;-0.83;100.00
36354;BME280;22383;51.114;13.666;2023-01-24T07:59:43;67111.38;;;-0.80;100.00
36354;BME280;22383;51.114;13.666;2023-01-24T08:02:11;67111.25;;;-0.75;100.00
36354;BME280;22383;51.114;13.666;2023-01-24T08:04:38;67113.06;;;-0.78;100.00
36354;BME280;22383;51.114;13.666;2023-01-24T08:07:06;67105.06;;;-0.81;100.00
36354;BME280;22383;51.114;13.666;2023-01-24T08:09:46;67106.72;;;-0.79;100.00
36354;BME280;22383;51.114;13.666;2023-01-24T08:12:15;67108.66;;;-0.75;100.00
36354;BME280;22383;51.114;13.666;2023-01-24T08:14:43;67109.56;;;-0.77;100.00
36354;BME280;22383;51.114;13.666;2023-01-24T08:17:10;67112.34;;;-0.74;100.00
36354;BME280;22383;51.114;13.666;2023-01-24T08:19:37;67104.91;;;-0.76;100.00
36354;BME280;22383;51.114;13.666;2023-01-24T08:22:26;67112.34;;;-0.74;100.00
36354;BME280;22383;51.114;13.666;2023-01-24T08:24:53;67110.66;;;-0.76;100.00
36354;BME280;22383;51.114;13.666;2023-01-24T08:27:20;67096.63;;;-0.88;100.00
36354;BME280;22383;51.114;13.666;2023-01-24T08:29:48;67104.84;;;-0.83;100.00
36354;BME280;22383;51.114;13.666;2023-01-24T08:32:15;67102.25;;;-0.83;100.00
36354;BME280;22383;51.114;13.666;2023-01-24T08:34:44;67108.41;;;-0.78;100.00
36354;BME280;22383;51.114;13.666;2023-01-24T08:37:11;67108.66;;;-0.75;100.00
36354;BME280;22383;51.114;13.666;2023-01-24T08:39:38;67115.53;;;-0.73;100.00
36354;BME280;22383;51.114;13.666;2023-01-24T08:42:06;67106.19;;;-0.80;100.00
36354;BME280;22383;51.114;13.666;2023-01-24T08:44:33;67108.66;;;-0.75;100.00
36354;BME280;22383;51.114;13.666;2023-01-24T08:47:01;67087.88;;;-0.75;100.00
36354;BME280;22383;51.114;13.666;2023-01-24T08:49:28;67119.66;;;-0.67;100.00
36354;BME280;22383;51.114;13.666;2023-01-24T08:51:55;67124.13;;;-0.63;100.00
36354;BME280;22383;51.114;13.666;2023-01-24T08:54:27;67114.25;;;-0.70;100.00
36354;BME280;22383;51.114;13.666;2023-01-24T08:56:55;67115.16;;;-0.71;100.00
36354;BME280;22383;51.114;13.666;2023-01-24T08:59:22;67112.56;;;-0.71;100.00
36354;BME280;22383;51.114;13.666;2023-01-24T09:01:49;67121.13;;;-0.68;100.00
36354;BME280;22383;51.114;13.666;2023-01-24T09:04:17;67120.78;;;-0.66;100.00
36354;BME280;22383;51.114;13.666;2023-01-24T09:06:44;67120.56;;;-0.69;100.00
36354;BME280;22383;51.114;13.666;2023-01-24T09:09:11;67115.94;;;-0.68;100.00
36354;BME280;22383;51.114;13.666;2023-01-24T09:11:38;67119.09;;;-0.68;100.00
36354;BME280;22383;51.114;13.666;2023-01-24T09:14:05;67120.63;;;-0.62;100.00
36354;BME280;22383;51.114;13.666;2023-01-24T09:16:33;67123.22;;;-0.62;100.00
36354;BME280;22383;51.114;13.666;2023-01-24T09:19:00;67135.94;;;-0.52;100.00
36354;BME280;22383;51.114;13.666;2023-01-24T09:21:27;67128.84;;;-0.57;100.00
36354;BME280;22383;51.114;13.666;2023-01-24T09:23:54;67133.84;;;-0.59;100.00
36354;BME280;22383;51.114;13.666;2023-01-24T09:26:22;67125.81;;;-0.62;100.00
36354;BME280;22383;51.114;13.666;2023-01-24T09:28:49;67136.88;;;-0.54;100.00
36354;BME280;22383;51.114;13.666;2023-01-24T09:31:16;67127.50;;;-0.60;100.00
36354;BME280;22383;51.114;13.666;2023-01-24T09:33:44;67112.00;;;-0.72;100.00
36354;BME280;22383;51.114;13.666;2023-01-24T09:36:25;67115.16;;;-0.71;100.00
36354;BME280;22383;51.114;13.666;2023-01-24T09:38:54;67125.06;;;-0.65;100.00
36354;BME280;22383;51.114;13.666;2023-01-24T09:41:56;67121.91;;;-0.65;100.00
36354;BME280;22383;51.114;13.666;2023-01-24T09:44:43;67124.72;;;-0.63;100.00
36354;BME280;22383;51.114;13.666;2023-01-24T09:47:22;67130.69;;;-0.60;100.00
36354;BME280;22383;51.114;13.666;2023-01-24T09:50:03;67123.03;;;-0.64;100.00
36354;BME280;22383;51.114;13.666;2023-01-24T09:52:36;67119.09;;;-0.68;100.00
36354;BME280;22383;51.114;13.666;2023-01-24T10:00:59;67124.91;;;-0.60;100.00
36354;BME280;22383;51.114;13.666;2023-01-24T10:03:27;67126.59;;;-0.59;100.00
36354;BME280;22383;51.114;13.666;2023-01-24T10:05:57;67128.66;;;-0.59;100.00
36354;BME280;22383;51.114;13.666;2023-01-24T10:08:34;67133.13;;;-0.55;100.00
36354;BME280;22383;51.114;13.666;2023-01-24T10:17:23;67145.63;;;-0.48;100.00
36354;BME280;22383;51.114;13.666;2023-01-24T10:23:02;67146.06;;;-0.43;100.00
36354;BME280;22383;51.114;13.666;2023-01-24T10:25:48;67137.63;;;-0.51;100.00
36354;BME280;22383;51.114;13.666;2023-01-24T10:28:38;67141.34;;;-0.50;100.00
36354;BME280;22383;51.114;13.666;2023-01-24T10:31:11;67154.06;;;-0.41;100.00
36354;BME280;22383;51.114;13.666;2023-01-24T10:33:44;67155.19;;;-0.40;100.00
36354;BME280;22383;51.114;13.666;2023-01-24T10:38:46;67147.94;;;-0.39;100.00
36354;BME280;22383;51.114;13.666;2023-01-24T10:41:28;67147.38;;;-0.40;100.00
36354;BME280;22383;51.114;13.666;2023-01-24T10:44:13;67149.78;;;-0.42;100.00
36354;BME280;22383;51.114;13.666;2023-01-24T10:46:50;67150.53;;;-0.39;100.00
36354;BME280;22383;51.114;13.666;2023-01-24T10:49:28;67165.72;;;-0.25;100.00
36354;BME280;22383;51.114;13.666;2023-01-24T10:52:24;67156.72;;;-0.33;100.00
36354;BME280;22383;51.114;13.666;2023-01-24T10:54:53;67139.31;;;-0.49;100.00
36354;BME280;22383;51.114;13.666;2023-01-24T10:57:39;67131.09;;;-0.54;100.00
36354;BME280;22383;51.114;13.666;2023-01-24T11:03:04;67150.97;;;-0.34;100.00
36354;BME280;22383;51.114;13.666;2023-01-24T11:05:52;67150.00;;;-0.40;100.00
36354;BME280;22383;51.114;13.666;2023-01-24T11:08:24;67159.31;;;-0.33;100.00
36354;BME280;22383;51.114;13.666;2023-01-24T11:10:56;67143.66;;;-0.41;100.00
36354;BME280;22383;51.114;13.666;2023-01-24T11:13:37;67163.06;;;-0.32;100.00
36354;BME280;22383;51.114;13.666;2023-01-24T11:18:50;67159.31;;;-0.33;100.00
36354;BME280;22383;51.114;13.666;2023-01-24T11:21:19;67151.13;;;-0.39;100.00
36354;BME280;22383;51.114;13.666;2023-01-24T11:24:00;67149.06;;;-0.38;100.00
36354;BME280;22383;51.114;13.666;2023-01-24T11:26:38;67159.31;;;-0.33;100.00
36354;BME280;22383;51.114;13.666;2023-01-24T11:29:19;67153.38;;;-0.36;100.00
36354;BME280;22383;51.114;13.666;2023-01-24T11:31:53;67154.13;;;-0.33;100.00
36354;BME280;22383;51.114;13.666;2023-01-24T11:34:45;67158.97;;;-0.31;100.00
36354;BME280;22383;51.114;13.666;2023-01-24T11:37:35;67159.91;;;-0.33;100.00
36354;BME280;22383;51.114;13.666;2023-01-24T11:43:08;67159.31;;;-0.33;100.00
36354;BME280;22383;51.114;13.666;2023-01-24T11:51:26;67152.59;;;-0.40;100.00
36354;BME280;22383;51.114;13.666;2023-01-24T11:54:27;67160.66;;;-0.30;100.00
36354;BME280;22383;51.114;13.666;2023-01-24T11:57:08;67158.75;;;-0.34;100.00
36354;BME280;22383;51.114;13.666;2023-01-24T12:02:46;67150.53;;;-0.39;100.00
36354;BME280;22383;51.114;13.666;2023-01-24T12:05:31;67147.38;;;-0.40;100.00
36354;BME280;22383;51.114;13.666;2023-01-24T12:08:29;67143.81;;;-0.45;100.00
36354;BME280;22383;51.114;13.666;2023-01-24T12:11:05;67148.66;;;-0.43;100.00
36354;BME280;22383;51.114;13.666;2023-01-24T12:19:49;67157.66;;;-0.35;100.00
36354;BME280;22383;51.114;13.666;2023-01-24T12:22:25;67149.63;;;-0.38;100.00
36354;BME280;22383;51.114;13.666;2023-01-24T12:25:36;67165.72;;;-0.25;100.00
36354;BME280;22383;51.114;13.666;2023-01-24T12:28:05;67172.47;;;-0.19;100.00
36354;BME280;22383;51.114;13.666;2023-01-24T12:30:50;67168.53;;;-0.23;100.00
36354;BME280;22383;51.114;13.666;2023-01-24T12:33:57;67166.84;;;-0.24;100.00
36354;BME280;22383;51.114;13.666;2023-01-24T12:36:38;67159.19;;;-0.29;100.00
36354;BME280;22383;51.114;13.666;2023-01-24T12:39:19;67161.78;;;-0.29;100.00
36354;BME280;22383;51.114;13.666;2023-01-24T12:41:56;67155.97;;;-0.36;100.00
36354;BME280;22383;51.114;13.666;2023-01-24T12:44:32;67154.47;;;-0.35;100.00
36354;BME280;22383;51.114;13.666;2023-01-24T12:47:25;67151.69;;;-0.38;100.00
36354;BME280;22383;51.114;13.666;2023-01-24T12:50:15;67151.69;;;-0.38;100.00
36354;BME280;22383;51.114;13.666;2023-01-24T12:55:32;67151.69;;;-0.38;100.00
36354;BME280;22383;51.114;13.666;2023-01-24T12:58:05;67154.84;;;-0.38;100.00
36354;BME280;22383;51.114;13.666;2023-01-24T13:00:46;67163.66;;;-0.25;100.00
36354;BME280;22383;51.114;13.666;2023-01-24T13:03:26;67156.94;;;-0.31;100.00
36354;BME280;22383;51.114;13.666;2023-01-24T13:06:08;67167.41;;;-0.24;100.00
36354;BME280;22383;51.114;13.666;2023-01-24T13:08:50;67173.56;;;-0.18;100.00
36354;BME280;22383;51.114;13.666;2023-01-24T13:11:24;67161.78;;;-0.29;100.00
36354;BME280;22383;51.114;13.666;2023-01-24T13:14:17;67148.66;;;-0.43;100.00
36354;BME280;22383;51.114;13.666;2023-01-24T13:20:07;67161.78;;;-0.29;100.00
36354;BME280;22383;51.114;13.666;2023-01-24T13:27:46;67169.09;;;-0.22;100.00
36354;BME280;22383;51.114;13.666;2023-01-24T13:33:30;67150.00;;;-0.40;100.00
36354;BME280;22383;51.114;13.666;2023-01-24T13:36:04;67153.91;;;-0.36;100.00
36354;BME280;22383;51.114;13.666;2023-01-24T13:38:41;67162.91;;;-0.28;100.00
36354;BME280;22383;51.114;13.666;2023-01-24T13:41:17;67163.13;;;-0.25;100.00
36354;BME280;22383;51.114;13.666;2023-01-24T13:49:17;67157.28;;;-0.33;100.00
36354;BME280;22383;51.114;13.666;2023-01-24T13:51:48;67154.47;;;-0.35;100.00
36354;BME280;22383;51.114;13.666;2023-01-24T13:54:39;67152.09;;;-0.33;100.00
36354;BME280;22383;51.114;13.666;2023-01-24T13:57:29;67156.72;;;-0.33;100.00
36354;BME280;22383;51.114;13.666;2023-01-24T14:08:44;67170.78;;;-0.21;100.00
36354;BME280;22383;51.114;13.666;2023-01-24T14:11:11;67171.88;;;-0.20;100.00
36354;BME280;22383;51.114;13.666;2023-01-24T14:21:27;67157.84;;;-0.32;100.00
36354;BME280;22383;51.114;13.666;2023-01-24T14:26:54;67161.22;;;-0.29;100.00
36354;BME280;22383;51.114;13.666;2023-01-24T14:29:29;67159.75;;;-0.28;100.00
36354;BME280;22383;51.114;13.666;2023-01-24T14:32:03;67149.63;;;-0.38;100.00
36354;BME280;22383;51.114;13.666;2023-01-24T14:34:50;67150.53;;;-0.39;100.00
36354;BME280;22383;51.114;13.666;2023-01-24T14:37:20;67159.91;;;-0.33;100.00
36354;BME280;22383;51.114;13.666;2023-01-24T14:39:47;67152.78;;;-0.37;100.00